createdAt,value
2022-08-19T00:04:21.212Z,7.7
2022-08-19T00:09:21.166Z,5.9
2022-08-19T00:14:21.167Z,5.1
2022-08-19T00:19:21.174Z,4.7
2022-08-19T00:24:21.182Z,3.7
2022-08-19T00:29:21.167Z,3.0
2022-08-19T00:34:21.181Z,3.0
2022-08-19T00:39:21.187Z,3.8
2022-08-19T00:44:21.180Z,2.8
2022-08-19T00:49:21.184Z,4.6
2022-08-19T00:54:28.285Z,6.7
2022-08-19T01:00:02.012Z,5.5
2022-08-19T01:04:21.192Z,5.5
2022-08-19T01:09:21.202Z,6.2
2022-08-19T01:14:21.194Z,5.2
2022-08-19T01:19:21.195Z,7.7
2022-08-19T01:24:21.207Z,4.9
2022-08-19T01:29:21.204Z,5.1
2022-08-19T01:34:21.208Z,5.1
2022-08-19T01:39:21.214Z,4.1
2022-08-19T01:44:21.201Z,3.2
2022-08-19T01:49:21.213Z,5.1
2022-08-19T01:54:23.090Z,4.1
2022-08-19T01:59:21.215Z,6.2
2022-08-19T02:04:21.214Z,6.2
2022-08-19T02:09:21.200Z,3.3
2022-08-19T02:14:21.218Z,5.5
2022-08-19T02:19:21.218Z,6.5
2022-08-19T02:24:21.221Z,3.7
2022-08-19T02:29:21.211Z,7.6
2022-08-19T02:34:21.233Z,7.6
2022-08-19T02:39:21.207Z,6.0
2022-08-19T02:44:31.198Z,5.2
2022-08-19T02:49:21.230Z,4.5
2022-08-19T02:54:21.235Z,5.3
2022-08-19T02:59:23.122Z,8.3
2022-08-19T03:04:21.227Z,8.3
2022-08-19T03:09:21.242Z,7.5
2022-08-19T03:14:21.268Z,12.3
2022-08-19T03:19:21.237Z,9.1
2022-08-19T03:24:21.248Z,7.2
2022-08-19T03:29:30.622Z,9.6
2022-08-19T03:34:21.288Z,9.6
2022-08-19T03:39:21.249Z,12.9
2022-08-19T03:44:21.262Z,8.1
2022-08-19T03:49:21.251Z,6.3
2022-08-19T03:54:21.272Z,9.7
2022-08-19T03:59:21.259Z,6.9
2022-08-19T04:04:21.272Z,6.9
2022-08-19T04:09:21.271Z,15.5
2022-08-19T04:14:21.273Z,6.9
2022-08-19T04:19:21.280Z,11.5
2022-08-19T04:24:21.272Z,6.4
2022-08-19T04:29:21.274Z,7.6
2022-08-19T04:34:21.287Z,7.6
2022-08-19T04:39:21.285Z,14.5
2022-08-19T04:44:21.288Z,13.4
2022-08-19T04:49:21.246Z,13.1
2022-08-19T04:54:37.730Z,8.8
2022-08-19T04:59:21.276Z,9.7
2022-08-19T05:04:21.468Z,9.7
2022-08-19T05:09:21.288Z,11.0
2022-08-19T05:14:21.290Z,9.6
2022-08-19T05:19:21.294Z,6.5
2022-08-19T05:24:21.301Z,12.1
2022-08-19T05:29:21.320Z,9.2
2022-08-19T05:34:21.295Z,9.2
2022-08-19T05:39:21.303Z,12.3
2022-08-19T05:44:21.309Z,10.1
2022-08-19T05:49:21.308Z,17.8
2022-08-19T05:54:21.310Z,17.6
2022-08-19T05:59:21.323Z,15.4
2022-08-19T06:04:21.314Z,15.4
2022-08-19T06:09:21.310Z,20.5
2022-08-19T06:14:21.323Z,18.5
2022-08-19T06:19:21.321Z,19.6
2022-08-19T06:24:21.360Z,23.7
2022-08-19T06:29:24.070Z,14.3
2022-08-19T06:34:21.335Z,14.3
2022-08-19T06:39:21.334Z,16.7
2022-08-19T06:44:21.371Z,17.4
2022-08-19T06:49:21.321Z,13.4
2022-08-19T06:54:21.344Z,18.3
2022-08-19T06:59:21.337Z,14.1
2022-08-19T07:04:21.356Z,14.1
2022-08-19T07:09:21.377Z,19.2
2022-08-19T07:14:21.350Z,15.2
2022-08-19T07:19:21.347Z,19.0
2022-08-19T07:24:21.348Z,23.2
2022-08-19T07:29:21.355Z,16.5
2022-08-19T07:34:21.358Z,16.5
2022-08-19T07:39:21.344Z,14.0
2022-08-19T07:44:21.358Z,14.9
2022-08-19T07:49:21.362Z,12.2
2022-08-19T07:54:21.364Z,17.6
2022-08-19T07:59:21.371Z,16.2
2022-08-19T08:04:21.366Z,16.2
2022-08-19T08:14:29.657Z,15.9
2022-08-19T08:19:25.582Z,13.3
2022-08-19T08:24:21.382Z,11.5
2022-08-19T08:29:21.384Z,11.5
2022-08-19T08:34:21.372Z,16.0
2022-08-19T08:39:21.390Z,13.0
2022-08-19T08:44:21.930Z,12.1
2022-08-19T08:49:21.424Z,14.0
2022-08-19T08:54:21.396Z,9.4
2022-08-19T08:59:21.390Z,9.4
2022-08-19T09:04:21.404Z,14.1
2022-08-19T09:09:21.392Z,12.5
2022-08-19T09:14:47.384Z,7.2
2022-08-19T09:19:22.297Z,10.4
2022-08-19T09:24:21.410Z,8.9
2022-08-19T09:29:22.702Z,8.9
2022-08-19T09:34:22.166Z,11.2
2022-08-19T09:39:21.435Z,9.6
2022-08-19T09:44:21.851Z,6.9
2022-08-19T09:49:21.409Z,11.8
2022-08-19T09:54:23.678Z,8.3
2022-08-19T09:59:21.427Z,8.3
2022-08-19T10:04:22.143Z,9.7
2022-08-19T10:09:26.124Z,11.2
2022-08-19T10:14:21.442Z,12.7
2022-08-19T10:19:26.069Z,12.1
2022-08-19T10:24:21.511Z,9.6
2022-08-19T10:29:31.872Z,9.6
2022-08-19T10:34:27.624Z,10.6
2022-08-19T10:39:22.837Z,7.0
2022-08-19T10:44:21.420Z,9.9
2022-08-19T10:49:21.444Z,5.7
2022-08-19T10:54:33.173Z,5.1
2022-08-19T10:59:21.448Z,5.1
2022-08-19T11:04:21.434Z,12.2
2022-08-19T11:09:21.459Z,6.7
2022-08-19T11:14:21.440Z,11.3
2022-08-19T11:19:21.457Z,8.4
2022-08-19T11:24:21.463Z,6.9
2022-08-19T11:29:21.448Z,6.9
2022-08-19T11:34:21.470Z,11.4
2022-08-19T11:39:21.502Z,7.5
2022-08-19T11:44:21.482Z,9.7
2022-08-19T11:49:21.456Z,5.6
2022-08-19T11:54:21.475Z,6.3
2022-08-19T11:59:21.460Z,6.3
2022-08-19T12:04:21.576Z,9.2
2022-08-19T12:09:21.480Z,7.9
2022-08-19T12:14:21.507Z,4.3
2022-08-19T12:19:22.183Z,6.3
2022-08-19T12:24:21.494Z,6.3
2022-08-19T12:29:23.654Z,6.3
2022-08-19T12:34:21.498Z,6.8
2022-08-19T12:39:21.473Z,10.1
2022-08-19T12:44:21.483Z,7.7
2022-08-19T12:49:52.370Z,9.6
2022-08-19T12:54:21.480Z,10.2
2022-08-19T12:59:21.492Z,10.2
2022-08-19T13:04:21.503Z,7.4
2022-08-19T13:09:21.491Z,4.3
2022-08-19T13:14:21.503Z,8.1
2022-08-19T13:19:21.508Z,5.9
2022-08-19T13:24:21.503Z,4.5
2022-08-19T13:29:21.492Z,4.5
2022-08-19T13:34:21.517Z,4.5
2022-08-19T13:39:21.501Z,6.0
2022-08-19T13:44:21.513Z,9.7
2022-08-19T13:49:21.513Z,6.1
2022-08-19T13:54:21.513Z,6.0
2022-08-19T13:59:21.524Z,6.0
2022-08-19T14:04:21.510Z,6.2
2022-08-19T14:09:21.543Z,6.1
2022-08-19T14:14:21.513Z,5.6
2022-08-19T14:19:21.531Z,2.9
2022-08-19T14:24:21.501Z,5.9
2022-08-19T14:29:21.531Z,5.9
2022-08-19T14:34:21.533Z,7.5
2022-08-19T14:39:21.526Z,5.1
2022-08-19T14:44:21.546Z,5.6
2022-08-19T14:49:21.559Z,6.1
2022-08-19T14:54:21.549Z,5.2
2022-08-19T14:59:21.542Z,5.2
2022-08-19T15:04:21.557Z,6.5
2022-08-19T15:09:21.547Z,4.2
2022-08-19T15:14:21.566Z,2.9
2022-08-19T15:19:21.573Z,6.8
2022-08-19T15:24:21.565Z,2.0
2022-08-19T15:29:21.553Z,2.0
2022-08-19T15:34:21.572Z,2.9
2022-08-19T15:39:21.558Z,5.1
2022-08-19T15:44:21.578Z,5.0
2022-08-19T15:49:21.566Z,3.0
2022-08-19T15:54:21.584Z,6.2
2022-08-19T15:59:21.577Z,6.2
2022-08-19T16:04:21.571Z,3.9
2022-08-19T16:09:26.629Z,4.4
2022-08-19T16:14:21.585Z,3.7
2022-08-19T16:19:21.581Z,3.3
2022-08-19T16:24:21.566Z,4.0
2022-08-19T16:29:33.352Z,4.0
2022-08-19T16:34:21.597Z,3.2
2022-08-19T16:39:21.589Z,3.7
2022-08-19T16:44:21.587Z,4.2
2022-08-19T16:49:52.233Z,2.6
2022-08-19T16:54:21.589Z,3.8
2022-08-19T16:59:21.592Z,3.8
2022-08-19T17:04:21.599Z,4.2
2022-08-19T17:09:25.805Z,5.5
2022-08-19T17:14:21.604Z,17.3
2022-08-19T17:19:21.599Z,3.1
2022-08-19T17:24:21.599Z,3.6
2022-08-19T17:29:21.629Z,3.6
2022-08-19T17:34:21.603Z,3.4
2022-08-19T17:39:21.621Z,4.7
2022-08-19T17:44:21.619Z,6.8
2022-08-19T17:49:21.608Z,3.4
2022-08-19T17:54:21.598Z,3.9
2022-08-19T17:59:21.614Z,3.9
2022-08-19T18:04:21.609Z,2.3
2022-08-19T18:09:23.943Z,6.4
2022-08-19T18:14:21.628Z,2.8
2022-08-19T18:19:21.615Z,3.7
2022-08-19T18:24:21.627Z,2.7
2022-08-19T18:29:21.620Z,2.7
2022-08-19T18:34:21.626Z,1.6
2022-08-19T18:39:21.618Z,3.6
2022-08-19T18:44:21.652Z,3.1
2022-08-19T18:49:21.625Z,3.0
2022-08-19T18:54:21.652Z,5.6
2022-08-19T18:59:21.635Z,5.6
2022-08-19T19:04:21.633Z,3.4
2022-08-19T19:09:21.633Z,4.0
2022-08-19T19:14:45.722Z,3.7
2022-08-19T19:19:21.650Z,4.5
2022-08-19T19:24:21.661Z,5.4
2022-08-19T19:29:21.644Z,5.4
2022-08-19T19:34:29.783Z,2.1
2022-08-19T19:39:46.346Z,3.1
2022-08-19T19:44:29.250Z,7.5
2022-08-19T19:49:21.636Z,3.1
2022-08-19T19:54:23.588Z,4.8
2022-08-19T19:59:21.625Z,4.8
2022-08-19T20:04:21.649Z,8.3
2022-08-19T20:09:21.665Z,5.4
2022-08-19T20:14:21.654Z,5.3
2022-08-19T20:19:21.644Z,4.0
2022-08-19T20:24:21.639Z,11.9
2022-08-19T20:29:38.127Z,11.9
2022-08-19T20:34:21.665Z,3.9
2022-08-19T20:39:21.645Z,4.9
2022-08-19T20:44:21.668Z,3.9
2022-08-19T20:49:21.658Z,2.9
2022-08-19T20:54:21.706Z,3.4
2022-08-19T20:59:21.655Z,3.4
2022-08-19T21:04:21.683Z,4.7
2022-08-19T21:09:21.667Z,4.4
2022-08-19T21:14:21.676Z,3.2
2022-08-19T21:19:24.041Z,5.9
2022-08-19T21:24:21.672Z,2.4
2022-08-19T21:29:21.655Z,2.4
2022-08-19T21:34:21.679Z,5.8
2022-08-19T21:39:21.673Z,5.8
2022-08-19T21:44:21.680Z,2.5
2022-08-19T21:49:21.653Z,3.7
2022-08-19T21:54:21.671Z,5.2
2022-08-19T21:59:21.659Z,5.2
2022-08-19T22:04:21.784Z,3.2
2022-08-19T22:09:21.687Z,5.7
2022-08-19T22:14:21.671Z,6.7
2022-08-19T22:19:21.670Z,5.5
2022-08-19T22:24:21.685Z,8.3
2022-08-19T22:29:31.851Z,8.3
2022-08-19T22:34:21.680Z,10.3
2022-08-19T22:39:21.677Z,11.9
2022-08-19T22:44:21.700Z,9.3
2022-08-19T22:49:21.688Z,9.3
2022-08-19T22:54:21.676Z,11.4
2022-08-19T22:59:21.675Z,11.4
2022-08-19T23:04:21.676Z,8.3
2022-08-19T23:09:23.458Z,8.8
2022-08-19T23:14:21.691Z,18.7
2022-08-19T23:19:21.677Z,16.1
2022-08-19T23:24:21.696Z,11.1
2022-08-19T23:29:21.673Z,11.1
2022-08-19T23:34:21.695Z,10.4
2022-08-19T23:39:21.693Z,10.7
2022-08-19T23:44:21.688Z,10.6
2022-08-19T23:49:21.678Z,14.3
2022-08-19T23:54:21.725Z,9.6
2022-08-19T23:59:21.678Z,9.6
